Time;durP1;ratioP1;P1;durP2;ratioP2;P2;SDS_P1;SDS_P2;PMS_P1;PMS_P2;Temp;Humidity;BMP_temperature;BMP_pressure;BME280_temperature;BME280_humidity;BME280_pressure;Samples;Min_cycle;Max_cycle;Signal;HPM_P1;HPM_P2
2023/05/23 00:00:59;;;;;;;16.20;14.57;;;25.30;53.70;;;;;;5050740;28;20467;-48
2023/05/23 00:03:25;;;;;;;19.73;15.57;;;25.40;53.60;;;;;;5047716;28;20263;-48
2023/05/23 00:05:51;;;;;;;18.33;16.43;;;25.40;53.40;;;;;;5041026;28;20459;-50
2023/05/23 00:08:17;;;;;;;19.90;16.83;;;25.50;53.20;;;;;;5038903;28;20516;-51
2023/05/23 00:10:43;;;;;;;18.80;16.97;;;25.60;53.20;;;;;;5044541;28;20235;-48
2023/05/23 00:13:11;;;;;;;22.10;16.20;;;25.60;53.20;;;;;;5046690;28;22119;-48
2023/05/23 00:15:37;;;;;;;17.33;12.53;;;25.60;53.10;;;;;;5048791;28;20457;-48
2023/05/23 00:18:03;;;;;;;14.87;10.80;;;25.60;53.00;;;;;;5050747;28;20470;-48
2023/05/23 00:20:29;;;;;;;19.27;17.27;;;25.70;52.20;;;;;;5044546;28;20447;-49
2023/05/23 00:22:57;;;;;;;21.97;17.70;;;25.80;52.20;;;;;;5040374;28;20254;-49
2023/05/23 00:25:23;;;;;;;19.10;17.10;;;25.90;52.40;;;;;;5044979;28;20196;-49
2023/05/23 00:27:49;;;;;;;20.33;17.97;;;25.90;52.50;;;;;;5046518;28;20439;-55
2023/05/23 00:30:15;;;;;;;20.77;18.10;;;25.90;52.60;;;;;;5047787;28;20501;-48
2023/05/23 00:32:41;;;;;;;17.43;15.63;;;25.90;52.50;;;;;;5024565;28;20447;-50
2023/05/23 00:35:07;;;;;;;19.43;17.43;;;25.90;52.70;;;;;;5034941;28;21021;-48
2023/05/23 00:37:35;;;;;;;21.13;18.90;;;25.90;52.70;;;;;;5043457;28;20770;-49
2023/05/23 00:40:01;;;;;;;20.60;16.87;;;25.80;52.80;;;;;;5041868;28;20431;-54
2023/05/23 00:42:27;;;;;;;21.23;19.03;;;25.90;53.00;;;;;;5041687;28;20459;-49
2023/05/23 00:44:52;;;;;;;24.03;21.00;;;25.80;53.00;;;;;;5041802;28;20211;-49
2023/05/23 00:47:18;;;;;;;23.40;20.03;;;25.70;53.20;;;;;;5039123;28;20200;-48
2023/05/23 00:49:44;;;;;;;24.17;21.40;;;25.70;53.60;;;;;;5039610;28;20301;-48
2023/05/23 00:52:10;;;;;;;26.90;22.50;;;25.60;53.80;;;;;;5041907;28;20250;-52
2023/05/23 00:54:36;;;;;;;20.37;18.10;;;25.60;53.90;;;;;;5035159;28;20200;-49
2023/05/23 00:57:02;;;;;;;24.17;20.40;;;25.60;54.10;;;;;;5045804;28;20469;-51
2023/05/23 00:59:28;;;;;;;23.30;20.90;;;25.60;54.10;;;;;;5043027;28;20567;-48
2023/05/23 01:01:56;;;;;;;23.00;20.60;;;25.60;53.90;;;;;;5042390;28;20192;-48
2023/05/23 01:04:25;;;;;;;29.60;21.80;;;25.60;53.70;;;;;;5040019;28;20432;-48
2023/05/23 01:06:55;;;;;;;21.30;19.10;;;25.60;53.70;;;;;;5046231;28;20434;-48
2023/05/23 01:09:22;;;;;;;22.37;19.97;;;25.60;53.60;;;;;;5040689;28;20816;-48
2023/05/23 01:11:50;;;;;;;23.80;21.30;;;25.60;53.50;;;;;;5044274;28;20439;-49
2023/05/23 01:14:29;;;;;;;23.87;21.07;;;25.50;53.70;;;;;;5046785;28;20474;-48
2023/05/23 01:17:00;;;;;;;26.70;21.80;;;25.50;53.80;;;;;;5045013;28;20535;-48
2023/05/23 01:19:57;;;;;;;30.57;22.27;;;25.50;53.80;;;;;;5046464;28;20446;-48
2023/05/23 01:22:40;;;;;;;24.57;21.83;;;25.50;53.90;;;;;;5042255;28;20951;-49
2023/05/23 01:25:48;;;;;;;23.23;20.57;;;25.50;53.90;;;;;;5042432;28;20454;-49
2023/05/23 01:28:20;;;;;;;28.83;23.63;;;25.40;54.00;;;;;;4941751;28;20459;-48
2023/05/23 01:30:50;;;;;;;29.63;24.67;;;25.40;54.10;;;;;;5024649;28;20567;-48
2023/05/23 01:33:17;;;;;;;29.37;21.90;;;25.40;54.10;;;;;;5046157;28;20442;-48
2023/05/23 01:35:43;;;;;;;31.60;22.53;;;25.30;54.10;;;;;;5043792;28;20454;-48
2023/05/23 01:38:08;;;;;;;28.13;22.07;;;25.30;54.10;;;;;;5045762;28;20861;-49
2023/05/23 01:40:35;;;;;;;29.77;25.13;;;25.30;54.00;;;;;;5041717;28;20463;-49
2023/05/23 01:43:01;;;;;;;32.17;24.70;;;25.30;54.10;;;;;;5038603;28;20211;-50
2023/05/23 01:45:28;;;;;;;30.67;26.03;;;25.30;54.20;;;;;;5047434;28;20458;-52
2023/05/23 01:47:55;;;;;;;33.70;27.10;;;25.30;54.30;;;;;;5041784;28;20923;-48
2023/05/23 01:50:22;;;;;;;37.63;30.00;;;25.20;54.40;;;;;;5044947;28;20475;-48
2023/05/23 01:52:48;;;;;;;32.17;27.70;;;25.20;54.50;;;;;;5046183;28;20938;-48
2023/05/23 01:55:17;;;;;;;40.20;30.43;;;25.20;54.60;;;;;;5044613;28;20480;-48
2023/05/23 01:57:47;;;;;;;39.80;31.33;;;25.20;54.60;;;;;;5046256;28;21320;-50
2023/05/23 02:00:14;;;;;;;38.03;30.00;;;25.20;54.60;;;;;;5050996;28;20445;-49
2023/05/23 02:02:40;;;;;;;45.90;31.87;;;25.20;55.00;;;;;;5051939;28;20435;-49
2023/05/23 02:05:06;;;;;;;38.33;30.67;;;25.20;55.30;;;;;;5046170;28;20440;-49
2023/05/23 02:07:32;;;;;;;38.53;28.63;;;25.10;55.60;;;;;;5048184;28;20449;-48
2023/05/23 02:09:57;;;;;;;41.67;33.63;;;25.10;55.60;;;;;;5051092;28;20230;-49
2023/05/23 02:12:23;;;;;;;37.67;32.53;;;25.10;55.60;;;;;;5040330;28;20216;-50
2023/05/23 02:14:51;;;;;;;42.03;33.87;;;25.00;55.30;;;;;;5051922;28;20196;-51
2023/05/23 02:17:17;;;;;;;40.60;33.20;;;25.00;55.40;;;;;;5044906;28;20710;-48
2023/05/23 02:19:42;;;;;;;41.60;33.00;;;24.90;55.70;;;;;;5053087;28;20451;-48
2023/05/23 02:22:08;;;;;;;39.43;34.47;;;24.80;55.90;;;;;;5052317;28;20446;-48
2023/05/23 02:24:33;;;;;;;50.70;34.50;;;24.70;55.90;;;;;;5050506;28;20228;-48
2023/05/23 02:26:59;;;;;;;43.50;34.70;;;24.70;56.10;;;;;;5048922;28;20291;-51
2023/05/23 02:29:25;;;;;;;49.33;35.87;;;24.60;56.30;;;;;;5052237;28;20227;-49
2023/05/23 02:31:50;;;;;;;43.50;33.40;;;24.50;56.40;;;;;;5052279;28;20193;-48
2023/05/23 02:34:16;;;;;;;42.97;33.17;;;24.50;56.50;;;;;;5050248;28;20247;-49
2023/05/23 02:36:41;;;;;;;41.03;31.60;;;24.40;56.50;;;;;;5032984;28;20195;-48
2023/05/23 02:39:07;;;;;;;41.80;32.50;;;24.30;56.40;;;;;;5051644;28;20200;-50
2023/05/23 02:41:32;;;;;;;40.03;33.20;;;24.30;56.40;;;;;;5052038;28;20200;-48
2023/05/23 02:43:58;;;;;;;37.20;30.10;;;24.20;56.50;;;;;;5051313;28;20338;-49
2023/05/23 02:46:24;;;;;;;39.40;32.53;;;24.20;56.50;;;;;;5051064;28;20204;-49
2023/05/23 02:48:50;;;;;;;41.00;33.20;;;24.20;56.70;;;;;;5042867;28;20564;-48
2023/05/23 02:51:16;;;;;;;42.27;33.13;;;24.10;56.80;;;;;;5052565;28;20435;-48
2023/05/23 02:53:41;;;;;;;45.07;34.30;;;24.10;57.00;;;;;;5045371;28;20354;-51
2023/05/23 02:56:08;;;;;;;47.80;35.00;;;24.10;57.30;;;;;;5044149;28;20569;-53
2023/05/23 02:58:34;;;;;;;47.30;33.97;;;24.10;57.60;;;;;;5045311;28;20319;-48
2023/05/23 03:01:03;;;;;;;48.37;36.70;;;24.10;58.30;;;;;;5049710;28;21045;-49
2023/05/23 03:03:32;;;;;;;48.97;37.80;;;24.10;57.80;;;;;;5048999;28;20419;-47
2023/05/23 03:05:57;;;;;;;50.83;35.87;;;24.10;57.90;;;;;;5044004;28;20439;-49
2023/05/23 03:08:23;;;;;;;46.73;35.40;;;24.10;57.90;;;;;;5041427;28;20439;-48
2023/05/23 03:10:49;;;;;;;40.70;32.80;;;24.10;57.90;;;;;;5046932;28;20277;-49
2023/05/23 03:13:15;;;;;;;42.30;34.03;;;24.10;57.90;;;;;;5048728;28;20458;-48
2023/05/23 03:15:41;;;;;;;43.73;33.50;;;24.10;58.00;;;;;;5039196;28;20443;-49
2023/05/23 03:18:06;;;;;;;37.93;29.27;;;24.00;58.00;;;;;;5049747;28;20569;-48
2023/05/23 03:20:32;;;;;;;33.03;24.87;;;24.00;58.00;;;;;;5043730;28;20189;-51
2023/05/23 03:22:57;;;;;;;36.80;27.40;;;24.00;57.80;;;;;;5042057;28;20193;-49
2023/05/23 03:25:23;;;;;;;35.43;27.60;;;24.00;57.60;;;;;;5047848;28;20200;-48
2023/05/23 03:27:49;;;;;;;31.80;26.57;;;24.00;57.50;;;;;;5048863;28;20208;-47
2023/05/23 03:30:14;;;;;;;31.90;25.67;;;24.00;57.20;;;;;;5042223;28;20221;-48
2023/05/23 03:32:41;;;;;;;34.77;27.67;;;23.90;57.20;;;;;;5045792;28;20242;-47
2023/05/23 03:35:07;;;;;;;40.70;31.97;;;23.90;57.40;;;;;;5046921;28;20291;-48
2023/05/23 03:37:32;;;;;;;46.47;37.83;;;23.90;57.70;;;;;;5042651;28;20447;-48
2023/05/23 03:39:58;;;;;;;51.43;40.07;;;23.90;58.20;;;;;;5047475;28;20938;-48
2023/05/23 03:42:23;;;;;;;50.87;38.93;;;23.90;58.50;;;;;;5044584;28;20523;-51
2023/05/23 03:44:49;;;;;;;50.43;39.27;;;24.00;58.90;;;;;;5041119;28;20250;-49
2023/05/23 03:47:14;;;;;;;51.93;37.07;;;24.00;58.90;;;;;;5042774;28;20205;-48
2023/05/23 03:49:40;;;;;;;47.63;37.00;;;24.00;59.00;;;;;;5043121;28;20232;-47
2023/05/23 03:52:06;;;;;;;48.47;37.87;;;24.00;59.00;;;;;;5042113;28;20272;-47
2023/05/23 03:54:31;;;;;;;44.50;34.97;;;24.00;58.90;;;;;;5050780;28;20205;-49
2023/05/23 03:56:57;;;;;;;45.10;34.80;;;24.00;58.90;;;;;;5051074;28;20342;-48
2023/05/23 03:59:22;;;;;;;52.90;41.17;;;24.00;58.80;;;;;;5043099;28;20240;-50
2023/05/23 04:01:48;;;;;;;50.63;42.70;;;24.00;58.90;;;;;;5050369;28;20663;-50
2023/05/23 04:04:13;;;;;;;51.20;41.67;;;24.10;59.10;;;;;;5048006;28;20189;-51
2023/05/23 04:06:39;;;;;;;55.63;41.40;;;24.00;59.10;;;;;;5049812;28;20267;-49
2023/05/23 04:09:05;;;;;;;52.50;41.13;;;24.00;59.20;;;;;;5040801;28;20220;-49
2023/05/23 04:11:31;;;;;;;46.87;40.50;;;24.10;59.40;;;;;;5050135;28;20671;-49
2023/05/23 04:13:57;;;;;;;53.93;43.80;;;24.10;59.40;;;;;;5043274;28;20452;-49
2023/05/23 04:16:23;;;;;;;52.53;40.67;;;24.10;59.40;;;;;;5040552;28;20192;-50
2023/05/23 04:18:49;;;;;;;56.70;42.60;;;24.10;59.40;;;;;;5046201;28;20211;-48
2023/05/23 04:21:14;;;;;;;59.53;42.83;;;24.10;59.50;;;;;;5039615;28;20443;-52
2023/05/23 04:23:40;;;;;;;51.63;42.27;;;24.10;59.70;;;;;;5039642;28;20193;-49
2023/05/23 04:26:05;;;;;;;58.30;43.37;;;24.00;59.60;;;;;;5048582;28;20600;-47
2023/05/23 04:28:31;;;;;;;52.57;42.03;;;24.00;59.70;;;;;;5043312;28;20214;-48
2023/05/23 04:30:57;;;;;;;55.13;43.27;;;24.00;59.70;;;;;;5049292;28;20224;-49
2023/05/23 04:33:23;;;;;;;52.70;42.90;;;24.00;59.70;;;;;;5040108;28;20283;-48
2023/05/23 04:35:50;;;;;;;52.53;43.20;;;24.00;59.90;;;;;;5039414;28;20263;-48
2023/05/23 04:38:16;;;;;;;53.87;44.10;;;24.10;60.10;;;;;;5040980;28;20486;-47
2023/05/23 04:40:41;;;;;;;54.37;41.53;;;24.10;60.00;;;;;;5040164;28;21236;-53
2023/05/23 04:43:09;;;;;;;56.33;42.27;;;24.10;60.00;;;;;;5035046;28;20443;-49
2023/05/23 04:45:35;;;;;;;56.83;43.10;;;24.00;60.00;;;;;;5044083;28;20929;-49
2023/05/23 04:48:01;;;;;;;52.30;40.80;;;24.00;60.10;;;;;;5046682;28;20443;-49
2023/05/23 04:50:30;;;;;;;50.97;40.77;;;24.00;60.00;;;;;;5048545;28;20565;-48
2023/05/23 04:52:56;;;;;;;51.73;41.40;;;23.90;60.20;;;;;;5047684;28;20910;-48
2023/05/23 04:55:21;;;;;;;46.90;37.77;;;23.90;60.30;;;;;;5049467;28;20435;-48
2023/05/23 04:57:47;;;;;;;52.27;40.73;;;23.90;60.50;;;;;;5049123;28;20196;-48
2023/05/23 05:00:13;;;;;;;45.23;39.80;;;23.80;60.60;;;;;;5044031;28;20198;-50
2023/05/23 05:02:40;;;;;;;47.60;38.70;;;23.80;60.60;;;;;;5048448;28;20228;-48
2023/05/23 05:05:06;;;;;;;48.73;38.77;;;23.80;60.80;;;;;;5038055;28;20485;-48
2023/05/23 05:07:31;;;;;;;47.17;40.77;;;23.70;60.80;;;;;;5042533;28;20447;-48
2023/05/23 05:09:57;;;;;;;47.77;38.97;;;23.70;61.10;;;;;;5045949;28;20487;-47
2023/05/23 05:12:23;;;;;;;50.10;40.53;;;23.80;60.90;;;;;;5045068;28;20196;-49
2023/05/23 05:14:48;;;;;;;43.93;37.43;;;23.70;61.20;;;;;;5049634;28;20551;-46
2023/05/23 05:17:14;;;;;;;35.20;25.60;;;23.70;61.10;;;;;;5039637;28;20567;-50
2023/05/23 05:19:40;;;;;;;41.27;27.00;;;23.70;61.20;;;;;;5043844;28;20231;-52
2023/05/23 05:22:06;;;;;;;42.90;37.83;;;23.80;61.00;;;;;;5039619;28;20922;-48
2023/05/23 05:24:32;;;;;;;47.93;39.70;;;24.00;60.30;;;;;;5040488;28;20264;-48
2023/05/23 05:26:58;;;;;;;44.23;35.17;;;24.00;60.00;;;;;;5040895;28;20525;-49
2023/05/23 05:29:24;;;;;;;46.80;37.00;;;24.10;59.70;;;;;;5044187;28;20607;-50
2023/05/23 05:31:50;;;;;;;47.30;37.57;;;24.20;59.50;;;;;;5045661;28;20227;-50
2023/05/23 05:34:17;;;;;;;44.90;38.27;;;24.20;59.50;;;;;;5050112;28;20207;-47
2023/05/23 05:36:46;;;;;;;42.83;37.80;;;24.10;59.40;;;;;;5043423;28;20589;-49
2023/05/23 05:39:15;;;;;;;45.70;37.67;;;24.20;59.20;;;;;;5043719;28;20449;-52
2023/05/23 05:41:41;;;;;;;37.40;31.57;;;24.40;59.00;;;;;;5051529;28;20451;-50
2023/05/23 05:44:07;;;;;;;46.43;37.37;;;24.40;58.90;;;;;;5044201;28;20447;-51
2023/05/23 05:46:33;;;;;;;46.70;37.30;;;24.40;58.90;;;;;;5049000;28;20192;-50
2023/05/23 05:48:58;;;;;;;45.90;36.90;;;24.50;58.90;;;;;;5053524;28;20447;-48
2023/05/23 05:51:24;;;;;;;42.20;35.90;;;24.50;58.70;;;;;;5054287;28;20199;-48
2023/05/23 05:53:50;;;;;;;46.37;35.50;;;24.50;58.70;;;;;;5051866;28;20271;-50
2023/05/23 05:56:15;;;;;;;46.10;36.43;;;24.50;58.80;;;;;;5034699;28;20267;-49
2023/05/23 05:58:41;;;;;;;39.80;35.50;;;24.50;58.70;;;;;;5047655;28;20239;-49
2023/05/23 06:01:06;;;;;;;39.90;35.80;;;24.50;58.70;;;;;;5047641;28;20288;-49
2023/05/23 06:03:32;;;;;;;42.43;37.77;;;24.50;58.70;;;;;;5044087;28;20184;-48
2023/05/23 06:05:58;;;;;;;40.60;35.17;;;24.50;59.30;;;;;;5049549;28;20254;-49
2023/05/23 06:08:24;;;;;;;42.17;36.77;;;24.50;58.60;;;;;;5051321;28;20195;-49
2023/05/23 06:10:50;;;;;;;44.97;36.13;;;24.60;58.50;;;;;;5034322;28;20248;-48
2023/05/23 06:13:16;;;;;;;39.23;35.00;;;24.70;58.50;;;;;;5035667;28;20344;-50
2023/05/23 06:15:42;;;;;;;38.53;34.33;;;24.60;58.60;;;;;;5050730;28;20201;-49
2023/05/23 06:18:07;;;;;;;40.60;34.47;;;24.30;59.20;;;;;;5050506;28;20864;-54
2023/05/23 06:20:33;;;;;;;39.27;34.97;;;24.40;59.10;;;;;;5045499;28;20440;-49
2023/05/23 06:22:59;;;;;;;39.80;35.27;;;24.40;58.70;;;;;;5048650;28;20662;-49
2023/05/23 06:25:25;;;;;;;36.87;33.00;;;24.50;58.70;;;;;;5044105;28;20197;-49
2023/05/23 06:27:50;;;;;;;37.27;33.37;;;24.40;58.80;;;;;;5040133;28;20446;-49
2023/05/23 06:30:16;;;;;;;37.53;33.50;;;24.40;58.70;;;;;;5052928;28;20240;-49
2023/05/23 06:32:41;;;;;;;36.40;32.57;;;24.40;58.70;;;;;;5048650;28;20200;-48
2023/05/23 06:35:07;;;;;;;41.10;36.33;;;24.20;59.10;;;;;;5033711;28;20232;-49
2023/05/23 06:37:33;;;;;;;35.83;32.13;;;24.20;59.30;;;;;;5043031;28;20971;-49
2023/05/23 06:39:59;;;;;;;39.40;34.37;;;24.20;59.00;;;;;;5043231;28;20446;-49
2023/05/23 06:42:26;;;;;;;37.27;33.27;;;24.20;58.70;;;;;;5048493;28;20220;-49
2023/05/23 06:44:51;;;;;;;38.30;34.30;;;24.00;59.10;;;;;;5048621;28;20185;-49
2023/05/23 06:47:17;;;;;;;38.93;34.63;;;24.10;59.00;;;;;;5049944;28;20427;-48
2023/05/23 06:49:42;;;;;;;41.50;34.43;;;24.10;58.80;;;;;;5050851;28;20761;-49
2023/05/23 06:52:08;;;;;;;36.37;32.63;;;24.20;58.80;;;;;;5049923;28;20212;-47
2023/05/23 06:54:34;;;;;;;37.20;33.37;;;24.10;58.90;;;;;;5042420;28;20197;-49
2023/05/23 06:57:00;;;;;;;37.73;33.33;;;24.20;58.80;;;;;;5047185;28;20648;-48
2023/05/23 06:59:25;;;;;;;36.07;32.37;;;24.30;58.80;;;;;;5045001;28;20482;-53
2023/05/23 07:01:51;;;;;;;39.67;35.57;;;24.30;58.60;;;;;;5051633;28;20195;-47
2023/05/23 07:04:16;;;;;;;36.47;32.37;;;24.20;58.60;;;;;;5052209;28;20649;-47
2023/05/23 07:06:42;;;;;;;37.20;33.30;;;24.20;58.50;;;;;;5048630;28;20560;-49
2023/05/23 07:09:07;;;;;;;35.77;31.97;;;24.20;58.80;;;;;;5046525;28;20220;-49
2023/05/23 07:11:34;;;;;;;35.87;32.17;;;24.10;58.90;;;;;;5052297;28;20661;-46
2023/05/23 07:14:00;;;;;;;36.67;32.80;;;24.10;59.00;;;;;;5050399;28;20196;-47
2023/05/23 07:16:25;;;;;;;35.63;32.00;;;24.10;59.00;;;;;;5051108;28;20812;-52
2023/05/23 07:18:51;;;;;;;34.07;30.43;;;24.10;58.90;;;;;;5046019;28;20192;-49
2023/05/23 07:21:16;;;;;;;35.03;31.30;;;24.00;59.10;;;;;;5047954;28;20713;-49
2023/05/23 07:23:42;;;;;;;34.60;31.20;;;23.90;59.20;;;;;;5039608;28;20196;-50
2023/05/23 07:26:08;;;;;;;36.23;32.57;;;23.80;59.50;;;;;;5033023;28;20185;-50
2023/05/23 07:28:35;;;;;;;34.40;31.00;;;23.80;59.40;;;;;;5041373;28;20587;-51
2023/05/23 07:31:00;;;;;;;39.10;33.00;;;23.70;59.80;;;;;;5051989;28;20482;-49
2023/05/23 07:33:26;;;;;;;39.13;34.87;;;23.60;59.80;;;;;;5044992;28;20458;-49
2023/05/23 07:35:51;;;;;;;40.13;36.03;;;23.60;60.00;;;;;;5046484;28;20227;-50
2023/05/23 07:38:17;;;;;;;36.20;32.70;;;23.50;60.20;;;;;;5043988;28;20656;-51
2023/05/23 07:40:43;;;;;;;33.10;29.70;;;23.40;59.80;;;;;;5049401;28;20330;-49
2023/05/23 07:43:08;;;;;;;35.80;31.90;;;23.20;60.00;;;;;;5048021;28;20189;-47
2023/05/23 07:45:34;;;;;;;36.30;32.47;;;23.20;60.20;;;;;;5048193;28;20621;-48
2023/05/23 07:47:59;;;;;;;34.00;30.23;;;23.30;60.00;;;;;;5046326;28;20200;-53
2023/05/23 07:50:26;;;;;;;31.07;28.17;;;23.30;59.80;;;;;;5033126;28;20239;-50
2023/05/23 07:52:52;;;;;;;31.40;28.10;;;23.30;59.30;;;;;;5047182;28;20203;-49
2023/05/23 07:55:17;;;;;;;29.70;26.70;;;23.20;59.50;;;;;;5046413;28;20922;-52
2023/05/23 07:57:43;;;;;;;28.30;25.60;;;23.20;59.90;;;;;;5048557;28;20215;-53
2023/05/23 08:00:09;;;;;;;32.33;27.77;;;23.40;59.30;;;;;;5035654;28;20224;-52
2023/05/23 08:02:35;;;;;;;28.03;25.27;;;23.40;58.50;;;;;;5041363;28;20253;-50
2023/05/23 08:05:01;;;;;;;27.03;24.33;;;23.40;58.70;;;;;;5044702;28;20989;-51
2023/05/23 08:07:27;;;;;;;27.50;25.00;;;23.50;58.50;;;;;;5041552;28;20201;-51
2023/05/23 08:09:52;;;;;;;27.57;24.77;;;23.60;58.20;;;;;;5047381;28;20540;-51
2023/05/23 08:12:18;;;;;;;25.83;23.33;;;23.70;58.10;;;;;;5045440;28;20235;-51
2023/05/23 08:14:43;;;;;;;26.30;23.60;;;23.70;57.40;;;;;;5048687;28;20204;-51
2023/05/23 08:17:11;;;;;;;24.50;22.03;;;23.70;57.20;;;;;;5043865;28;20242;-54
2023/05/23 08:19:37;;;;;;;26.43;23.97;;;23.70;57.70;;;;;;5049459;28;20215;-53
2023/05/23 08:22:03;;;;;;;27.07;24.27;;;23.70;57.30;;;;;;5036761;28;20448;-52
2023/05/23 08:24:29;;;;;;;26.57;24.00;;;23.70;57.00;;;;;;5045126;28;20200;-53
2023/05/23 08:26:55;;;;;;;26.17;23.57;;;23.60;56.60;;;;;;5042410;28;20444;-48
2023/05/23 08:29:21;;;;;;;26.77;24.00;;;23.30;57.40;;;;;;5036731;28;20475;-53
2023/05/23 08:31:46;;;;;;;25.20;22.60;;;23.30;57.50;;;;;;5041390;28;20200;-54
2023/05/23 08:34:13;;;;;;;24.80;22.20;;;23.40;57.40;;;;;;5040892;28;20199;-51
2023/05/23 08:36:39;;;;;;;25.60;23.10;;;23.50;57.10;;;;;;5040652;28;20201;-51
2023/05/23 08:39:04;;;;;;;25.40;22.70;;;23.30;57.00;;;;;;5045898;28;21035;-52
2023/05/23 08:41:30;;;;;;;25.03;22.20;;;23.50;57.00;;;;;;5046785;28;20557;-54
2023/05/23 08:43:58;;;;;;;24.40;22.10;;;23.40;56.90;;;;;;5047499;28;20743;-51
2023/05/23 08:46:26;;;;;;;23.23;20.93;;;23.40;57.00;;;;;;5044635;28;20246;-49
2023/05/23 08:48:53;;;;;;;23.60;21.30;;;23.40;56.90;;;;;;5048487;28;20493;-52
2023/05/23 08:51:25;;;;;;;22.30;20.30;;;23.60;56.70;;;;;;5047182;28;20442;-50
2023/05/23 08:53:52;;;;;;;21.27;19.37;;;23.70;56.40;;;;;;5040827;28;20451;-52
2023/05/23 08:56:19;;;;;;;21.30;19.37;;;23.60;56.60;;;;;;5042493;28;20824;-52
2023/05/23 08:58:46;;;;;;;23.17;20.97;;;23.90;56.30;;;;;;5047309;28;21104;-49
2023/05/23 09:01:13;;;;;;;24.73;21.47;;;24.10;55.80;;;;;;5042370;28;20439;-50
2023/05/23 09:03:41;;;;;;;22.53;20.50;;;24.20;55.50;;;;;;5046924;28;20449;-50
2023/05/23 09:06:07;;;;;;;21.57;19.67;;;24.30;55.20;;;;;;5045169;28;20550;-54
2023/05/23 09:08:33;;;;;;;21.37;19.27;;;24.30;54.90;;;;;;5038422;28;20553;-53
2023/05/23 09:11:01;;;;;;;20.67;18.43;;;24.30;54.90;;;;;;5048757;28;20623;-52
2023/05/23 09:13:30;;;;;;;22.27;20.17;;;24.40;54.50;;;;;;5048793;28;20449;-51
2023/05/23 09:16:17;;;;;;;20.83;19.03;;;24.40;54.10;;;;;;5051760;28;20565;-49
2023/05/23 09:18:44;;;;;;;20.20;18.13;;;24.50;53.80;;;;;;5044119;28;20443;-49
2023/05/23 09:21:11;;;;;;;20.53;18.50;;;24.50;54.00;;;;;;5034639;28;20420;-49
2023/05/23 09:23:41;;;;;;;21.07;18.90;;;24.50;53.60;;;;;;5039856;28;20526;-50
2023/05/23 09:26:12;;;;;;;20.20;18.30;;;24.30;53.50;;;;;;5053140;28;20815;-51
2023/05/23 09:28:39;;;;;;;19.10;17.10;;;24.20;53.80;;;;;;5054568;28;20454;-51
2023/05/23 09:31:07;;;;;;;19.93;18.13;;;24.20;53.50;;;;;;5054181;28;20482;-50
2023/05/23 09:33:48;;;;;;;19.53;17.73;;;24.30;53.30;;;;;;5053204;28;20465;-50
2023/05/23 09:36:15;;;;;;;17.67;16.07;;;24.10;53.30;;;;;;5048883;28;20498;-51
2023/05/23 09:38:43;;;;;;;18.57;16.87;;;24.00;54.30;;;;;;5039794;28;20437;-52
2023/05/23 09:41:12;;;;;;;18.97;17.17;;;24.10;54.50;;;;;;5052917;28;20542;-52
2023/05/23 09:43:53;;;;;;;18.33;16.43;;;24.20;53.20;;;;;;5052837;28;20802;-51
2023/05/23 09:46:21;;;;;;;19.17;17.30;;;24.40;53.30;;;;;;5051716;28;20442;-49
2023/05/23 09:48:47;;;;;;;16.63;15.00;;;24.50;52.80;;;;;;5053564;28;20439;-52
2023/05/23 09:51:13;;;;;;;18.07;16.40;;;24.60;52.60;;;;;;5051456;28;20490;-54
2023/05/23 09:53:39;;;;;;;18.23;16.60;;;24.60;52.60;;;;;;5042413;28;20442;-49
2023/05/23 09:56:06;;;;;;;18.57;15.83;;;24.80;52.30;;;;;;5047142;28;20451;-52
2023/05/23 09:58:32;;;;;;;18.07;16.47;;;24.80;51.90;;;;;;5049343;28;20778;-50
2023/05/23 10:01:02;;;;;;;19.07;17.30;;;24.90;52.00;;;;;;5052604;28;20447;-54
2023/05/23 10:03:44;;;;;;;18.90;17.10;;;25.00;51.40;;;;;;5048914;28;20453;-52
2023/05/23 10:06:21;;;;;;;19.40;16.80;;;25.10;51.70;;;;;;5051270;28;20454;-52
2023/05/23 10:09:03;;;;;;;16.43;14.73;;;25.20;51.20;;;;;;5049571;28;20441;-51
2023/05/23 10:11:35;;;;;;;19.53;15.33;;;25.30;51.00;;;;;;5053543;28;20439;-51
2023/05/23 10:14:09;;;;;;;17.47;15.77;;;25.20;50.80;;;;;;5051597;28;20485;-51
2023/05/23 10:16:52;;;;;;;16.50;15.07;;;25.20;50.90;;;;;;5053312;28;20439;-52
2023/05/23 10:19:43;;;;;;;17.50;15.70;;;25.50;50.80;;;;;;5042616;28;20452;-54
2023/05/23 10:22:11;;;;;;;16.53;14.83;;;25.60;49.90;;;;;;5047045;28;20486;-50
2023/05/23 10:24:37;;;;;;;15.83;14.30;;;25.40;50.00;;;;;;5053005;28;20987;-52
2023/05/23 10:27:03;;;;;;;16.57;14.87;;;25.40;50.50;;;;;;5053400;28;20522;-53
2023/05/23 10:29:29;;;;;;;17.07;15.50;;;25.50;50.70;;;;;;5053248;28;20919;-49
2023/05/23 10:31:56;;;;;;;17.73;16.13;;;25.50;49.60;;;;;;5052232;28;20274;-49
2023/05/23 10:34:41;;;;;;;17.70;16.10;;;25.60;49.10;;;;;;5052640;28;20453;-54
2023/05/23 10:37:14;;;;;;;18.17;16.47;;;25.60;49.20;;;;;;5051289;28;20443;-50
2023/05/23 10:40:05;;;;;;;17.57;15.97;;;25.60;49.20;;;;;;5051741;28;20443;-50
2023/05/23 10:43:04;;;;;;;17.10;15.60;;;25.60;48.80;;;;;;5049123;28;20439;-49
2023/05/23 10:45:41;;;;;;;17.37;15.57;;;25.50;48.90;;;;;;5046190;28;20447;-54
2023/05/23 10:48:31;;;;;;;17.87;16.07;;;25.30;49.10;;;;;;5043172;28;20435;-51
2023/05/23 10:51:07;;;;;;;15.83;14.47;;;25.50;49.00;;;;;;5047680;28;20502;-52
2023/05/23 10:53:53;;;;;;;15.60;14.10;;;25.60;49.00;;;;;;5034715;28;20455;-50
2023/05/23 10:56:23;;;;;;;15.13;13.83;;;25.60;48.50;;;;;;5049268;28;20463;-52
2023/05/23 10:58:57;;;;;;;15.63;14.20;;;25.60;48.30;;;;;;5051444;28;20471;-53
2023/05/23 11:01:23;;;;;;;14.47;13.20;;;25.60;48.00;;;;;;5052253;28;20526;-52
2023/05/23 11:03:51;;;;;;;14.70;13.30;;;25.30;48.20;;;;;;5051634;28;20473;-49
2023/05/23 11:06:43;;;;;;;13.10;12.00;;;25.30;48.20;;;;;;5041336;28;20460;-50
2023/05/23 11:09:18;;;;;;;13.87;12.53;;;25.40;48.60;;;;;;5042733;28;20502;-50
2023/05/23 11:11:52;;;;;;;13.60;12.40;;;25.40;48.30;;;;;;5042448;28;20478;-52
2023/05/23 11:14:18;;;;;;;14.10;12.80;;;25.40;47.90;;;;;;5050674;28;20461;-51
2023/05/23 11:16:45;;;;;;;13.70;12.40;;;25.40;47.90;;;;;;5048941;28;20512;-52
2023/05/23 11:19:17;;;;;;;13.40;12.30;;;25.50;47.70;;;;;;5050797;28;20530;-51
2023/05/23 11:21:45;;;;;;;14.00;12.53;;;25.60;47.10;;;;;;5050375;28;20451;-49
2023/05/23 11:24:10;;;;;;;12.83;11.73;;;25.40;47.40;;;;;;5049201;28;20444;-51
2023/05/23 11:26:36;;;;;;;12.90;11.73;;;25.40;47.40;;;;;;5051010;28;20505;-51
2023/05/23 11:29:07;;;;;;;11.50;10.40;;;25.40;47.20;;;;;;5043543;28;20238;-51
2023/05/23 11:31:39;;;;;;;12.50;11.50;;;25.40;47.10;;;;;;5046597;28;20198;-54
2023/05/23 11:34:06;;;;;;;12.70;11.50;;;25.40;47.10;;;;;;5047858;28;20438;-51
2023/05/23 11:36:32;;;;;;;12.30;11.10;;;25.50;47.10;;;;;;5036522;28;20909;-50
2023/05/23 11:39:02;;;;;;;10.80;9.87;;;25.60;46.50;;;;;;5045283;28;20438;-50
2023/05/23 11:41:27;;;;;;;12.27;10.97;;;25.80;46.50;;;;;;5049930;28;20237;-51
2023/05/23 11:43:53;;;;;;;10.50;9.63;;;25.70;45.70;;;;;;5050414;28;20454;-51
2023/05/23 11:46:19;;;;;;;9.97;9.07;;;25.70;45.80;;;;;;5049636;28;20200;-57
2023/05/23 11:48:48;;;;;;;9.90;9.00;;;25.80;46.00;;;;;;5049939;28;20204;-51
2023/05/23 11:51:14;;;;;;;9.97;9.17;;;25.90;45.00;;;;;;5049631;28;20751;-52
2023/05/23 11:53:40;;;;;;;10.90;9.90;;;25.80;45.30;;;;;;5050201;28;20471;-53
2023/05/23 11:56:07;;;;;;;9.80;9.00;;;25.90;46.10;;;;;;5050491;28;21159;-52
2023/05/23 11:58:34;;;;;;;11.73;10.73;;;26.00;44.90;;;;;;5050561;28;20463;-51
2023/05/23 12:01:05;;;;;;;9.27;8.50;;;26.10;45.20;;;;;;5047416;28;20492;-50
2023/05/23 12:03:33;;;;;;;10.73;9.83;;;26.10;45.60;;;;;;5048107;28;20809;-56
2023/05/23 12:06:00;;;;;;;9.10;8.40;;;26.10;44.80;;;;;;5044886;28;20450;-52
2023/05/23 12:08:26;;;;;;;9.97;9.20;;;26.00;44.70;;;;;;5042400;28;20435;-55
2023/05/23 12:10:55;;;;;;;9.77;8.97;;;26.10;44.80;;;;;;5049081;28;20948;-52
2023/05/23 12:13:24;;;;;;;9.23;8.47;;;26.20;44.60;;;;;;5049326;28;20196;-52
2023/05/23 12:15:55;;;;;;;9.67;8.87;;;26.40;44.70;;;;;;5046973;28;20546;-50
2023/05/23 12:18:21;;;;;;;8.53;7.83;;;26.40;44.60;;;;;;5050825;28;20420;-52
2023/05/23 12:20:50;;;;;;;9.60;8.80;;;26.40;44.90;;;;;;5049552;28;20462;-51
2023/05/23 12:23:24;;;;;;;9.10;8.30;;;26.50;44.40;;;;;;5045041;28;20456;-51
2023/05/23 12:25:53;;;;;;;8.63;7.90;;;26.10;44.50;;;;;;5043923;28;20526;-53
2023/05/23 12:28:35;;;;;;;8.57;7.87;;;26.10;44.80;;;;;;5050748;28;20529;-52
2023/05/23 12:31:11;;;;;;;9.37;8.57;;;26.20;44.90;;;;;;5049302;28;20577;-51